Time;durP1;ratioP1;P1;durP2;ratioP2;P2;SDS_P1;SDS_P2;PMS_P1;PMS_P2;Temp;Humidity;BMP_temperature;BMP_pressure;BME280_temperature;BME280_humidity;BME280_pressure;Samples;Min_cycle;Max_cycle;Signal;HPM_P1;HPM_P2
2021/09/07 00:00:31;;;;;;;17.75;11.38;;;12.20;99.90;;;;;;5031584;28;20479;-80
2021/09/07 00:02:57;;;;;;;17.17;11.65;;;12.20;99.90;;;;;;5031309;28;20040;-81
2021/09/07 00:05:22;;;;;;;17.17;12.00;;;12.10;99.90;;;;;;5031192;28;20036;-80
2021/09/07 00:07:48;;;;;;;20.27;12.50;;;12.10;99.90;;;;;;5030453;28;20030;-80
2021/09/07 00:10:14;;;;;;;22.50;12.73;;;12.10;99.90;;;;;;5031572;28;20029;-80
2021/09/07 00:12:41;;;;;;;18.20;12.02;;;12.00;99.90;;;;;;5013041;28;20108;-80
2021/09/07 00:15:09;;;;;;;19.55;11.98;;;12.00;99.90;;;;;;5030143;28;20394;-80
2021/09/07 00:17:35;;;;;;;20.17;12.32;;;11.90;99.90;;;;;;5028917;28;20029;-80
2021/09/07 00:20:01;;;;;;;16.33;12.23;;;11.90;99.90;;;;;;5045779;28;20108;-80
2021/09/07 00:22:27;;;;;;;18.45;10.80;;;11.80;99.90;;;;;;5036614;28;20029;-80
2021/09/07 00:24:53;;;;;;;16.65;12.07;;;11.70;99.90;;;;;;5030969;28;20017;-80
2021/09/07 00:27:18;;;;;;;17.80;11.43;;;11.70;99.90;;;;;;5029518;28;20037;-80
2021/09/07 00:29:44;;;;;;;20.52;13.15;;;11.60;99.90;;;;;;5011769;28;20026;-80
2021/09/07 00:32:09;;;;;;;20.60;12.18;;;11.50;99.90;;;;;;5030323;28;20040;-80
2021/09/07 00:34:35;;;;;;;17.40;11.82;;;11.40;99.90;;;;;;5030526;28;20037;-80
2021/09/07 00:37:02;;;;;;;19.13;11.65;;;11.30;99.90;;;;;;5029231;28;20029;-80
2021/09/07 00:39:27;;;;;;;20.63;13.20;;;11.20;99.90;;;;;;5031903;28;20068;-81
2021/09/07 00:41:53;;;;;;;20.58;14.10;;;11.20;99.90;;;;;;5031170;28;20045;-81
2021/09/07 00:44:20;;;;;;;23.10;13.93;;;11.20;99.90;;;;;;5030347;28;20028;-80
2021/09/07 00:46:55;;;;;;;21.42;13.82;;;11.10;99.90;;;;;;5013196;28;20072;-81
2021/09/07 00:49:21;;;;;;;20.90;13.45;;;11.10;99.90;;;;;;5030581;28;20064;-80
2021/09/07 00:51:49;;;;;;;22.52;13.90;;;11.00;99.90;;;;;;5030073;28;20391;-80
2021/09/07 00:54:16;;;;;;;18.77;13.52;;;10.90;99.90;;;;;;5010539;28;20380;-80
2021/09/07 00:56:42;;;;;;;19.80;13.25;;;10.90;99.90;;;;;;5014787;28;20030;-80
2021/09/07 00:59:09;;;;;;;21.83;14.07;;;10.80;99.90;;;;;;5029419;28;20461;-80
2021/09/07 01:01:35;;;;;;;20.83;14.25;;;10.80;99.90;;;;;;5031754;28;20029;-80
2021/09/07 01:04:01;;;;;;;23.70;13.98;;;10.70;99.90;;;;;;5029103;28;20040;-80
2021/09/07 01:06:27;;;;;;;20.15;13.05;;;10.70;99.90;;;;;;5031564;28;20025;-80
2021/09/07 01:08:55;;;;;;;19.27;12.25;;;10.60;99.90;;;;;;5007575;28;20064;-80
2021/09/07 01:11:21;;;;;;;19.50;12.57;;;10.60;99.90;;;;;;5030346;28;20025;-80
2021/09/07 01:13:47;;;;;;;18.95;13.48;;;10.50;99.90;;;;;;5027251;28;20084;-80
2021/09/07 01:16:13;;;;;;;16.27;12.40;;;10.60;99.90;;;;;;5028470;28;20037;-80
2021/09/07 01:18:40;;;;;;;17.92;12.75;;;10.50;99.90;;;;;;5031466;28;20034;-80
2021/09/07 01:21:13;;;;;;;17.67;13.00;;;10.40;99.90;;;;;;5012899;28;20022;-80
2021/09/07 01:23:41;;;;;;;16.52;11.77;;;10.40;99.90;;;;;;5029603;28;20025;-80
2021/09/07 01:26:07;;;;;;;20.77;13.75;;;10.40;99.90;;;;;;5031405;28;20104;-80
2021/09/07 01:28:33;;;;;;;18.35;12.07;;;10.30;99.90;;;;;;5027110;28;20031;-80
2021/09/07 01:31:00;;;;;;;19.17;13.13;;;10.30;99.90;;;;;;5012768;28;20034;-80
2021/09/07 01:33:25;;;;;;;22.83;12.73;;;10.30;99.90;;;;;;5029088;28;20029;-80
2021/09/07 01:35:56;;;;;;;22.58;15.00;;;10.30;99.90;;;;;;5029815;28;20033;-80
2021/09/07 01:38:21;;;;;;;24.83;13.88;;;10.30;99.90;;;;;;5032257;28;20033;-80
2021/09/07 01:40:47;;;;;;;17.55;12.95;;;10.30;99.90;;;;;;5033366;28;20025;-80
2021/09/07 01:43:14;;;;;;;18.02;11.82;;;10.30;99.90;;;;;;5035162;28;20029;-80
2021/09/07 01:45:39;;;;;;;19.05;12.88;;;10.30;99.90;;;;;;5033790;28;20038;-80
2021/09/07 01:48:05;;;;;;;18.42;14.25;;;10.30;99.90;;;;;;5034237;28;20036;-80
2021/09/07 01:50:30;;;;;;;19.48;12.75;;;10.30;99.90;;;;;;5035064;28;20071;-80
2021/09/07 01:52:56;;;;;;;18.52;13.68;;;10.20;99.90;;;;;;5034159;28;20032;-80
2021/09/07 01:55:21;;;;;;;16.05;12.63;;;10.20;99.90;;;;;;5014094;28;20037;-80
2021/09/07 01:57:47;;;;;;;17.40;12.63;;;10.10;99.90;;;;;;5015147;28;20025;-80
2021/09/07 02:00:13;;;;;;;24.45;16.95;;;10.10;99.90;;;;;;5034771;28;20030;-80
2021/09/07 02:02:39;;;;;;;21.38;15.73;;;10.10;99.90;;;;;;5031819;28;20394;-80
2021/09/07 02:05:05;;;;;;;24.27;16.77;;;10.00;99.90;;;;;;5031438;28;20034;-80
2021/09/07 02:07:31;;;;;;;26.27;19.05;;;10.00;99.90;;;;;;5016969;28;20029;-80
2021/09/07 02:09:56;;;;;;;23.85;17.25;;;10.10;99.90;;;;;;5033502;28;20026;-80
2021/09/07 02:12:22;;;;;;;27.38;17.70;;;10.10;99.90;;;;;;5034627;28;20036;-80
2021/09/07 02:14:48;;;;;;;25.98;17.58;;;10.00;99.90;;;;;;5032440;28;20033;-80
2021/09/07 02:17:13;;;;;;;24.02;16.58;;;10.00;99.90;;;;;;5015833;28;20498;-80
2021/09/07 02:19:39;;;;;;;29.65;21.13;;;10.00;99.90;;;;;;5034538;28;20766;-80
2021/09/07 02:22:05;;;;;;;24.75;18.95;;;9.90;99.90;;;;;;5033913;28;20026;-79
2021/09/07 02:24:30;;;;;;;26.27;18.10;;;10.00;99.90;;;;;;5031102;28;20398;-80
2021/09/07 02:26:56;;;;;;;23.35;17.75;;;9.90;99.90;;;;;;5033315;28;20017;-80
2021/09/07 02:29:22;;;;;;;25.73;17.60;;;9.90;99.90;;;;;;5032514;28;20057;-80
2021/09/07 02:31:47;;;;;;;23.75;16.85;;;9.90;99.90;;;;;;5032593;28;20042;-80
2021/09/07 02:34:13;;;;;;;21.13;15.95;;;9.90;99.90;;;;;;5032033;28;20029;-80
2021/09/07 02:36:38;;;;;;;20.75;15.35;;;9.90;99.90;;;;;;5032168;28;20478;-80
2021/09/07 02:39:04;;;;;;;17.65;14.65;;;9.90;99.90;;;;;;5033730;28;20033;-80
2021/09/07 02:41:30;;;;;;;23.00;15.95;;;9.80;99.90;;;;;;5034102;28;20026;-79
2021/09/07 02:43:55;;;;;;;21.77;16.05;;;9.80;99.90;;;;;;5031617;28;20028;-79
2021/09/07 02:46:21;;;;;;;28.45;18.52;;;9.80;99.90;;;;;;5034035;28;20029;-80
2021/09/07 02:48:46;;;;;;;24.77;17.33;;;9.70;99.90;;;;;;5031575;28;20033;-80
2021/09/07 02:51:12;;;;;;;23.23;17.50;;;9.70;99.90;;;;;;5032790;28;20033;-80
2021/09/07 02:53:38;;;;;;;25.30;16.77;;;9.60;99.90;;;;;;5031649;28;20497;-80
2021/09/07 02:56:03;;;;;;;27.15;17.88;;;9.60;99.90;;;;;;5032392;28;20091;-80
2021/09/07 02:58:29;;;;;;;26.08;17.90;;;9.60;99.90;;;;;;5032112;28;20053;-80
2021/09/07 03:00:55;;;;;;;25.20;18.10;;;9.60;99.90;;;;;;5030723;28;20064;-79
2021/09/07 03:03:22;;;;;;;35.63;20.02;;;9.50;99.90;;;;;;5031297;28;20025;-79
2021/09/07 03:05:47;;;;;;;35.40;22.73;;;9.50;99.90;;;;;;5031627;28;20028;-80
2021/09/07 03:08:13;;;;;;;34.70;21.10;;;9.40;99.90;;;;;;5032490;28;20401;-80
2021/09/07 03:10:39;;;;;;;35.28;21.95;;;9.40;99.90;;;;;;5032402;28;20033;-80
2021/09/07 03:13:04;;;;;;;35.17;22.90;;;9.30;99.90;;;;;;5031581;28;20026;-79
2021/09/07 03:15:29;;;;;;;34.25;21.60;;;9.30;99.90;;;;;;5033178;28;20040;-80
2021/09/07 03:17:55;;;;;;;33.17;21.48;;;9.20;99.90;;;;;;5031264;28;20036;-79
2021/09/07 03:20:20;;;;;;;37.15;23.08;;;9.20;99.90;;;;;;5032318;28;20030;-80
2021/09/07 03:22:46;;;;;;;36.58;23.63;;;9.10;99.90;;;;;;5031354;28;20025;-80
2021/09/07 03:25:12;;;;;;;35.72;23.33;;;9.10;99.90;;;;;;5033052;28;20021;-80
2021/09/07 03:27:38;;;;;;;35.35;21.92;;;9.10;99.90;;;;;;5031196;28;20112;-79
2021/09/07 03:30:04;;;;;;;31.40;19.55;;;9.10;99.90;;;;;;5029976;28;20021;-80
2021/09/07 03:32:29;;;;;;;38.05;23.70;;;9.10;99.90;;;;;;5033178;28;20040;-80
2021/09/07 03:34:55;;;;;;;39.58;23.05;;;9.10;99.90;;;;;;5032007;28;20025;-80
2021/09/07 03:37:21;;;;;;;31.00;20.30;;;9.10;99.90;;;;;;5031662;28;20033;-80
2021/09/07 03:39:46;;;;;;;33.25;21.17;;;9.10;99.90;;;;;;5032961;28;20034;-80
2021/09/07 03:42:12;;;;;;;35.55;22.85;;;9.20;99.90;;;;;;5029887;28;20018;-80
2021/09/07 03:44:37;;;;;;;33.38;21.95;;;9.20;99.90;;;;;;5031350;28;20024;-80
2021/09/07 03:47:04;;;;;;;32.60;21.58;;;9.30;99.90;;;;;;5030703;28;20025;-80
2021/09/07 03:49:29;;;;;;;33.10;21.92;;;9.40;99.90;;;;;;5031621;28;20029;-79
2021/09/07 03:51:55;;;;;;;34.10;22.45;;;9.40;99.90;;;;;;5014240;28;20036;-79
2021/09/07 03:54:21;;;;;;;29.95;20.58;;;9.50;99.90;;;;;;5032589;28;20096;-79
2021/09/07 03:56:46;;;;;;;33.20;20.83;;;9.50;99.90;;;;;;5030402;28;20037;-80
2021/09/07 03:59:12;;;;;;;37.22;22.90;;;9.60;99.90;;;;;;5030976;28;20032;-79
2021/09/07 04:01:37;;;;;;;36.42;23.02;;;9.60;99.90;;;;;;5012332;28;20458;-80
2021/09/07 04:04:04;;;;;;;38.70;24.33;;;9.50;99.90;;;;;;5014684;28;20018;-80
2021/09/07 04:06:30;;;;;;;34.08;20.77;;;9.50;99.90;;;;;;5032501;28;20041;-79
2021/09/07 04:08:55;;;;;;;38.83;23.77;;;9.50;99.90;;;;;;5031630;28;20104;-80
2021/09/07 04:11:21;;;;;;;37.33;22.50;;;9.50;99.90;;;;;;5014776;28;20075;-80
2021/09/07 04:13:46;;;;;;;32.80;21.80;;;9.50;99.90;;;;;;5029112;28;20037;-80
2021/09/07 04:16:12;;;;;;;33.25;22.05;;;9.50;99.90;;;;;;5031439;28;20108;-80
2021/09/07 04:18:38;;;;;;;41.83;22.33;;;9.50;99.90;;;;;;5013521;28;20075;-80
2021/09/07 04:21:05;;;;;;;33.35;22.02;;;9.50;99.90;;;;;;5032330;28;20104;-79
2021/09/07 04:23:30;;;;;;;40.13;23.00;;;9.60;99.90;;;;;;5030923;28;20030;-80
2021/09/07 04:25:57;;;;;;;44.15;22.80;;;9.60;99.90;;;;;;5030695;28;20437;-80
2021/09/07 04:28:23;;;;;;;37.67;22.08;;;9.60;99.90;;;;;;5031193;28;20025;-80
2021/09/07 04:30:48;;;;;;;40.40;22.15;;;9.60;99.90;;;;;;5030019;28;20033;-80
2021/09/07 04:33:14;;;;;;;38.03;22.90;;;9.60;99.90;;;;;;5029428;28;20075;-80
2021/09/07 04:35:40;;;;;;;40.92;22.95;;;9.60;99.90;;;;;;5031624;28;20660;-80
2021/09/07 04:38:05;;;;;;;36.22;22.77;;;9.60;99.90;;;;;;5029893;28;20034;-80
2021/09/07 04:40:31;;;;;;;38.55;23.25;;;9.60;99.90;;;;;;5014248;28;20018;-80
2021/09/07 04:42:57;;;;;;;36.53;23.25;;;9.60;99.90;;;;;;5030975;28;20049;-80
2021/09/07 04:45:23;;;;;;;39.63;24.83;;;9.60;99.90;;;;;;5029176;28;20108;-80
2021/09/07 04:47:48;;;;;;;45.08;27.02;;;9.60;99.90;;;;;;5031897;28;20025;-80
2021/09/07 04:50:14;;;;;;;41.03;23.77;;;9.70;99.90;;;;;;5031116;28;20128;-80
2021/09/07 04:52:39;;;;;;;39.97;25.25;;;9.70;99.90;;;;;;5029787;28;20044;-80
2021/09/07 04:55:05;;;;;;;41.22;24.52;;;9.70;99.90;;;;;;5013887;28;20037;-79
2021/09/07 04:57:31;;;;;;;43.80;26.67;;;9.80;99.90;;;;;;5029529;28;20120;-80
2021/09/07 04:59:56;;;;;;;47.95;28.08;;;9.90;99.90;;;;;;5028704;28;20025;-79
2021/09/07 05:02:22;;;;;;;42.40;26.10;;;10.00;99.90;;;;;;5031757;28;20017;-79
2021/09/07 05:04:47;;;;;;;51.72;28.05;;;10.10;99.90;;;;;;5030441;28;20032;-80
2021/09/07 05:07:13;;;;;;;43.25;27.27;;;10.20;99.90;;;;;;5030455;28;20030;-80
2021/09/07 05:09:39;;;;;;;64.22;33.45;;;10.30;99.90;;;;;;5031323;28;20030;-80
2021/09/07 05:12:05;;;;;;;49.70;28.77;;;10.40;99.90;;;;;;5032074;28;20406;-80
2021/09/07 05:14:31;;;;;;;60.28;33.90;;;10.50;99.90;;;;;;5034408;28;20437;-80
2021/09/07 05:16:56;;;;;;;58.53;31.88;;;10.50;99.90;;;;;;5034719;28;20256;-80
2021/09/07 05:19:22;;;;;;;61.80;31.90;;;10.50;99.90;;;;;;5034387;28;20064;-80
2021/09/07 05:21:47;;;;;;;52.80;30.38;;;10.60;99.90;;;;;;5033804;28;20502;-79
2021/09/07 05:24:13;;;;;;;64.28;34.03;;;10.70;99.90;;;;;;5034134;28;20032;-80
2021/09/07 05:26:39;;;;;;;62.03;32.53;;;10.80;99.90;;;;;;5034293;28;20524;-80
2021/09/07 05:29:04;;;;;;;51.25;31.15;;;10.90;99.90;;;;;;5033659;28;20479;-80
2021/09/07 05:31:30;;;;;;;51.72;28.40;;;11.00;99.90;;;;;;5035513;28;20033;-80
2021/09/07 05:33:55;;;;;;;57.35;31.95;;;11.10;99.90;;;;;;5015773;28;20021;-80
2021/09/07 05:36:21;;;;;;;50.15;30.52;;;11.20;99.90;;;;;;5016790;28;20064;-80
2021/09/07 05:38:46;;;;;;;49.78;30.17;;;11.40;99.90;;;;;;5017416;28;20029;-80
2021/09/07 05:41:12;;;;;;;41.25;27.40;;;11.50;99.90;;;;;;5034458;28;20385;-80
2021/09/07 05:43:37;;;;;;;46.60;25.85;;;11.60;99.90;;;;;;5032364;28;20051;-80
2021/09/07 05:46:03;;;;;;;40.08;25.33;;;11.70;99.90;;;;;;5033145;28;20041;-80
2021/09/07 05:48:29;;;;;;;43.08;25.95;;;11.70;99.90;;;;;;5034227;28;20402;-79
2021/09/07 05:50:54;;;;;;;41.35;25.92;;;11.80;99.90;;;;;;5033834;28;20033;-80
2021/09/07 05:53:20;;;;;;;42.72;25.42;;;11.90;99.90;;;;;;5034203;28;20059;-80
2021/09/07 05:55:45;;;;;;;39.33;25.08;;;11.90;99.90;;;;;;5034789;28;20029;-80
2021/09/07 05:58:11;;;;;;;46.97;27.85;;;12.00;99.90;;;;;;5032332;28;20497;-80
2021/09/07 06:00:36;;;;;;;40.42;25.85;;;12.10;99.90;;;;;;5032703;28;20032;-80
2021/09/07 06:03:04;;;;;;;41.17;26.15;;;12.20;99.90;;;;;;5015019;28;20389;-80
2021/09/07 06:05:30;;;;;;;39.95;24.85;;;12.40;99.90;;;;;;5022391;28;20040;-80
2021/09/07 06:07:55;;;;;;;51.85;27.85;;;12.50;99.90;;;;;;5034610;28;20029;-80
2021/09/07 06:10:21;;;;;;;47.42;27.77;;;12.60;99.90;;;;;;5015752;28;20034;-80
2021/09/07 06:12:47;;;;;;;47.40;28.63;;;12.70;99.90;;;;;;5033618;28;20033;-80
2021/09/07 06:15:12;;;;;;;54.00;30.67;;;12.80;99.90;;;;;;5031825;28;20567;-80
2021/09/07 06:17:38;;;;;;;47.45;32.05;;;13.00;99.90;;;;;;5034489;28;20129;-80
2021/09/07 06:20:04;;;;;;;43.70;25.75;;;13.10;99.90;;;;;;5033314;28;20033;-80
2021/09/07 06:22:29;;;;;;;54.05;33.08;;;13.20;99.90;;;;;;5034206;28;20599;-80
2021/09/07 06:24:55;;;;;;;49.88;32.28;;;13.40;99.90;;;;;;5033109;28;20021;-80
2021/09/07 06:27:21;;;;;;;46.85;29.15;;;13.60;99.90;;;;;;5033359;28;20022;-80
2021/09/07 06:29:47;;;;;;;54.50;31.83;;;13.70;99.90;;;;;;5033167;28;20120;-80
2021/09/07 06:32:13;;;;;;;49.72;30.40;;;13.60;99.90;;;;;;5033127;28;20025;-80
2021/09/07 06:34:40;;;;;;;34.03;23.65;;;13.70;99.90;;;;;;5031923;28;20486;-81
2021/09/07 06:37:05;;;;;;;45.40;28.40;;;13.80;99.90;;;;;;5016354;28;20036;-81
2021/09/07 06:39:31;;;;;;;46.15;29.08;;;13.90;99.90;;;;;;5032067;28;20104;-81
2021/09/07 06:41:56;;;;;;;41.50;25.25;;;14.00;99.90;;;;;;5032885;28;20109;-80
2021/09/07 06:44:22;;;;;;;45.13;29.13;;;14.00;99.90;;;;;;5033824;28;20017;-80
2021/09/07 06:46:47;;;;;;;36.78;25.58;;;14.00;99.90;;;;;;5033130;28;20026;-80
2021/09/07 06:49:13;;;;;;;40.60;25.67;;;14.20;99.90;;;;;;5033915;28;20072;-80
2021/09/07 06:51:39;;;;;;;41.05;24.33;;;14.20;99.90;;;;;;5031159;28;20094;-81
2021/09/07 06:54:04;;;;;;;27.83;19.98;;;14.30;99.90;;;;;;5032428;28;20025;-80
2021/09/07 06:56:30;;;;;;;31.85;22.70;;;14.40;99.90;;;;;;5031517;28;20048;-80
2021/09/07 06:58:55;;;;;;;25.98;17.52;;;14.50;99.90;;;;;;5032953;28;20036;-81
2021/09/07 07:01:21;;;;;;;33.10;20.85;;;14.60;99.90;;;;;;5032793;28;20501;-81
2021/09/07 07:03:47;;;;;;;34.72;21.92;;;14.60;99.90;;;;;;5031421;28;20421;-81
2021/09/07 07:06:12;;;;;;;26.17;18.90;;;14.70;99.90;;;;;;5030940;28;20040;-81
2021/09/07 07:08:38;;;;;;;26.13;17.00;;;14.80;99.90;;;;;;5032394;28;20021;-80
2021/09/07 07:11:03;;;;;;;32.95;21.73;;;14.90;99.90;;;;;;5032587;28;20029;-81
2021/09/07 07:13:29;;;;;;;46.90;23.70;;;15.00;99.90;;;;;;5032495;28;20031;-80
2021/09/07 07:15:54;;;;;;;30.30;20.48;;;15.10;99.90;;;;;;5032271;28;20033;-81
2021/09/07 07:18:20;;;;;;;33.55;19.98;;;15.20;99.90;;;;;;5031918;28;20056;-80
2021/09/07 07:20:45;;;;;;;34.13;22.25;;;15.30;99.90;;;;;;5031979;28;20021;-81
2021/09/07 07:23:11;;;;;;;26.27;18.98;;;15.40;99.90;;;;;;5014150;28;20028;-80
2021/09/07 07:25:37;;;;;;;30.45;18.48;;;15.50;99.90;;;;;;5031561;28;20029;-80
2021/09/07 07:28:02;;;;;;;30.25;19.33;;;15.50;99.90;;;;;;5032429;28;20060;-81
2021/09/07 07:30:28;;;;;;;26.75;16.05;;;15.60;99.90;;;;;;5033202;28;20448;-80
2021/09/07 07:32:54;;;;;;;27.25;16.42;;;15.80;99.90;;;;;;5030033;28;20026;-80
2021/09/07 07:35:20;;;;;;;28.50;16.48;;;15.90;99.90;;;;;;5030541;28;20505;-80
2021/09/07 07:37:46;;;;;;;37.53;19.77;;;16.10;99.90;;;;;;5023426;28;20048;-81
2021/09/07 07:40:12;;;;;;;31.23;17.65;;;16.10;99.90;;;;;;5029661;28;20029;-81
2021/09/07 07:42:37;;;;;;;20.67;14.88;;;16.10;99.90;;;;;;5028981;28;20026;-80
2021/09/07 07:45:03;;;;;;;27.52;16.17;;;16.20;99.90;;;;;;5023981;28;20053;-81
2021/09/07 07:47:29;;;;;;;34.10;18.98;;;16.20;99.90;;;;;;5013864;28;20056;-80
2021/09/07 07:49:55;;;;;;;20.80;13.70;;;16.10;99.90;;;;;;5032850;28;20052;-80
2021/09/07 07:52:20;;;;;;;24.98;15.57;;;16.20;99.90;;;;;;5031831;28;20109;-79
2021/09/07 07:54:49;;;;;;;18.77;12.23;;;16.40;99.90;;;;;;5031430;28;20401;-80
2021/09/07 07:57:15;;;;;;;29.73;13.35;;;16.50;99.90;;;;;;5030392;28;20072;-80
2021/09/07 07:59:41;;;;;;;20.33;12.10;;;16.60;99.90;;;;;;5013987;28;20508;-80
2021/09/07 08:02:06;;;;;;;20.15;12.90;;;16.70;99.90;;;;;;5028657;28;20022;-80
2021/09/07 08:04:32;;;;;;;20.38;13.45;;;16.90;99.90;;;;;;5031727;28;20030;-79
2021/09/07 08:06:57;;;;;;;23.13;13.45;;;17.10;99.90;;;;;;5029191;28;20634;-80
2021/09/07 08:09:23;;;;;;;21.67;13.38;;;17.20;99.90;;;;;;5031391;28;20044;-80
2021/09/07 08:11:49;;;;;;;24.23;11.77;;;17.30;99.90;;;;;;5031538;28;20036;-80
2021/09/07 08:14:15;;;;;;;13.32;7.90;;;17.30;99.90;;;;;;5031987;28;20040;-80
2021/09/07 08:16:40;;;;;;;19.52;11.70;;;17.40;99.90;;;;;;5030637;28;20025;-80
2021/09/07 08:19:06;;;;;;;18.38;12.38;;;17.40;99.90;;;;;;5029994;28;20395;-80
2021/09/07 08:21:31;;;;;;;22.00;13.00;;;17.50;99.90;;;;;;5030749;28;20025;-78
2021/09/07 08:23:57;;;;;;;18.05;9.80;;;17.50;99.90;;;;;;5029898;28;20087;-79
2021/09/07 08:26:23;;;;;;;20.60;10.05;;;17.60;99.90;;;;;;5030003;28;20025;-79
2021/09/07 08:28:48;;;;;;;22.40;12.75;;;17.60;99.90;;;;;;5013933;28;20021;-79
2021/09/07 08:31:14;;;;;;;20.83;10.70;;;17.60;99.90;;;;;;5030618;28;20398;-80
2021/09/07 08:33:40;;;;;;;19.75;9.27;;;17.70;99.90;;;;;;5031861;28;20033;-80
2021/09/07 08:36:05;;;;;;;25.80;12.35;;;17.80;99.90;;;;;;5027519;28;20025;-80
2021/09/07 08:38:31;;;;;;;13.38;10.18;;;17.80;99.90;;;;;;5026866;28;20040;-80
2021/09/07 08:40:57;;;;;;;20.90;10.63;;;17.80;99.90;;;;;;5031804;28;20113;-79
2021/09/07 08:43:24;;;;;;;22.10;11.48;;;17.80;99.90;;;;;;5031954;28;20021;-81
2021/09/07 08:45:55;;;;;;;25.50;10.52;;;17.60;99.90;;;;;;5030779;28;20026;-79
2021/09/07 08:48:22;;;;;;;22.00;10.82;;;17.50;99.90;;;;;;5014142;28;20021;-79
2021/09/07 08:50:49;;;;;;;12.35;8.68;;;17.60;99.90;;;;;;5013894;28;20068;-79
2021/09/07 08:53:14;;;;;;;15.85;9.57;;;17.60;99.90;;;;;;5031764;28;20060;-79
2021/09/07 08:55:40;;;;;;;25.27;10.02;;;17.60;99.90;;;;;;5031468;28;20060;-80
2021/09/07 08:58:06;;;;;;;21.17;11.05;;;17.60;99.90;;;;;;5030500;28;20512;-79
2021/09/07 09:00:35;;;;;;;14.52;8.60;;;17.60;99.90;;;;;;5031164;28;20531;-79
2021/09/07 09:03:08;;;;;;;12.25;7.55;;;17.70;99.90;;;;;;5030341;28;20030;-80
2021/09/07 09:05:34;;;;;;;16.90;9.93;;;17.80;99.90;;;;;;5029935;28;20102;-79
2021/09/07 09:07:59;;;;;;;12.50;7.70;;;17.80;99.90;;;;;;5031684;28;20683;-79
2021/09/07 09:10:26;;;;;;;11.00;8.55;;;17.90;99.90;;;;;;5031226;28;20033;-79
2021/09/07 09:13:13;;;;;;;12.02;7.05;;;18.00;99.90;;;;;;5031628;28;20030;-79
2021/09/07 09:15:39;;;;;;;14.63;8.52;;;18.10;99.90;;;;;;5029998;28;20026;-80
2021/09/07 09:18:10;;;;;;;22.20;9.20;;;18.00;99.90;;;;;;5031282;28;20037;-79
2021/09/07 09:20:37;;;;;;;11.88;8.02;;;18.00;99.90;;;;;;5031037;28;20033;-79
2021/09/07 09:23:05;;;;;;;22.52;9.15;;;18.00;99.90;;;;;;5029812;28;20135;-79
2021/09/07 09:25:41;;;;;;;18.02;7.28;;;17.90;99.90;;;;;;5029889;28;20509;-79
2021/09/07 09:28:15;;;;;;;15.88;8.57;;;17.70;99.90;;;;;;5030159;28;20549;-79
2021/09/07 09:30:46;;;;;;;12.57;7.70;;;17.70;99.90;;;;;;5013632;28;20505;-80
2021/09/07 09:33:15;;;;;;;14.68;8.52;;;17.60;99.90;;;;;;5030186;28;20082;-79
2021/09/07 09:36:00;;;;;;;12.70;6.63;;;17.70;99.90;;;;;;5030926;28;20036;-78
2021/09/07 09:38:34;;;;;;;20.75;8.07;;;17.90;99.90;;;;;;5031483;28;20028;-79
2021/09/07 09:41:11;;;;;;;15.27;8.02;;;18.10;99.90;;;;;;5030003;28;20025;-79
2021/09/07 09:43:38;;;;;;;12.50;7.57;;;18.10;99.90;;;;;;5013610;28;20022;-78
2021/09/07 09:46:18;;;;;;;12.68;7.05;;;18.40;99.90;;;;;;5029794;28;20032;-79
2021/09/07 09:48:43;;;;;;;19.65;8.57;;;18.60;99.90;;;;;;5030103;28;20025;-79
2021/09/07 09:51:13;;;;;;;14.15;7.53;;;18.70;99.90;;;;;;5031237;28;20389;-79
2021/09/07 09:53:40;;;;;;;15.13;7.05;;;18.70;99.90;;;;;;5029617;28;20406;-79
2021/09/07 09:56:06;;;;;;;13.35;7.68;;;18.70;99.90;;;;;;5031073;28;20117;-79
2021/09/07 09:58:33;;;;;;;23.73;9.18;;;18.70;99.90;;;;;;5016414;28;20124;-79
2021/09/07 10:01:00;;;;;;;13.32;8.40;;;18.70;99.90;;;;;;5034663;28;20034;-79
2021/09/07 10:03:27;;;;;;;12.30;7.80;;;18.80;99.90;;;;;;5035139;28;20481;-78
2021/09/07 10:05:53;;;;;;;11.98;7.80;;;19.00;99.90;;;;;;5034534;28;20442;-78
2021/09/07 10:08:19;;;;;;;13.02;7.90;;;18.90;99.90;;;;;;5034864;28;20064;-79
2021/09/07 10:11:11;;;;;;;13.00;8.70;;;19.00;99.90;;;;;;5034608;28;20053;-79
2021/09/07 10:13:42;;;;;;;18.00;7.93;;;19.10;99.90;;;;;;5026427;28;20059;-79
2021/09/07 10:16:18;;;;;;;12.02;7.72;;;19.20;99.90;;;;;;5033328;28;20083;-79
2021/09/07 10:18:50;;;;;;;17.05;8.30;;;19.30;99.90;;;;;;5033239;28;20025;-79
2021/09/07 10:24:20;;;;;;;15.95;7.55;;;19.30;99.90;;;;;;5034371;28;20022;-79
2021/09/07 10:26:47;;;;;;;16.10;8.07;;;19.50;99.90;;;;;;5033035;28;20132;-80
2021/09/07 10:29:21;;;;;;;14.88;7.47;;;19.90;99.90;;;;;;5033315;28;20025;-79
2021/09/07 10:31:53;;;;;;;10.52;6.82;;;19.80;99.90;;;;;;5016657;28;20563;-79
2021/09/07 10:34:25;;;;;;;14.93;8.05;;;19.90;99.90;;;;;;5034113;28;20025;-79
2021/09/07 10:37:06;;;;;;;16.83;7.28;;;19.90;99.90;;;;;;5034131;28;20040;-79
2021/09/07 10:39:42;;;;;;;9.77;5.93;;;19.90;99.90;;;;;;5032720;28;20029;-80
2021/09/07 10:42:14;;;;;;;13.52;6.93;;;20.30;99.90;;;;;;5016563;28;20045;-80
2021/09/07 10:44:41;;;;;;;16.60;7.22;;;20.40;99.90;;;;;;5032535;28;20025;-80
2021/09/07 10:47:16;;;;;;;13.30;8.02;;;20.30;99.90;;;;;;5033944;28;20018;-79
2021/09/07 10:49:54;;;;;;;10.18;6.43;;;20.20;99.90;;;;;;5034466;28;20032;-79
2021/09/07 10:52:31;;;;;;;10.82;7.47;;;20.20;99.90;;;;;;5032754;28;20025;-79
2021/09/07 10:55:11;;;;;;;10.02;6.88;;;20.60;99.90;;;;;;5033694;28;20083;-79
2021/09/07 10:57:52;;;;;;;13.93;7.18;;;20.60;99.90;;;;;;5033804;28;20036;-81
2021/09/07 11:00:24;;;;;;;12.55;6.80;;;20.80;99.90;;;;;;5015817;28;20029;-80
2021/09/07 11:02:50;;;;;;;14.00;6.03;;;20.80;99.90;;;;;;5033875;28;20108;-79
2021/09/07 11:05:28;;;;;;;15.32;7.40;;;21.20;99.90;;;;;;5033480;28;20108;-79
2021/09/07 11:08:16;;;;;;;14.73;7.15;;;21.40;99.90;;;;;;5032262;28;20551;-79
2021/09/07 11:10:46;;;;;;;18.48;7.88;;;21.50;99.90;;;;;;5031851;28;20120;-79
2021/09/07 11:13:19;;;;;;;12.35;6.85;;;21.30;99.90;;;;;;5033851;28;20079;-79
2021/09/07 11:15:45;;;;;;;14.70;8.18;;;21.50;99.90;;;;;;5033263;28;20032;-79
2021/09/07 11:18:12;;;;;;;19.00;7.55;;;21.40;99.90;;;;;;5033360;28;20500;-80
2021/09/07 11:20:46;;;;;;;12.95;7.28;;;21.80;99.90;;;;;;5033340;28;20029;-79
2021/09/07 11:23:20;;;;;;;10.07;6.95;;;21.70;99.90;;;;;;5032026;28;20032;-80
2021/09/07 11:25:47;;;;;;;14.18;6.30;;;21.30;99.90;;;;;;5033091;28;20033;-80
2021/09/07 11:28:15;;;;;;;12.38;6.90;;;21.30;99.90;;;;;;5031927;28;20052;-79
2021/09/07 11:30:46;;;;;;;11.85;6.55;;;21.40;99.90;;;;;;5033197;28;20025;-79
2021/09/07 11:33:22;;;;;;;17.05;7.15;;;21.60;99.90;;;;;;5015545;28;20053;-79
2021/09/07 11:35:56;;;;;;;13.63;7.85;;;21.90;99.90;;;;;;5032948;28;20025;-79
2021/09/07 11:38:30;;;;;;;21.85;9.25;;;21.90;99.90;;;;;;5033024;28;20032;-80
2021/09/07 11:40:59;;;;;;;18.77;8.23;;;21.80;99.90;;;;;;5033069;28;20025;-79
2021/09/07 11:43:33;;;;;;;14.40;6.90;;;21.50;99.90;;;;;;5032954;28;20045;-79
2021/09/07 11:46:11;;;;;;;13.38;8.13;;;21.70;99.90;;;;;;5032608;28;20455;-79
2021/09/07 11:48:42;;;;;;;14.85;7.65;;;21.50;99.90;;;;;;5033063;28;20032;-79
2021/09/07 11:51:09;;;;;;;16.25;8.60;;;21.60;99.90;;;;;;5031661;28;20025;-79
2021/09/07 11:53:35;;;;;;;12.40;7.60;;;21.50;99.90;;;;;;5032703;28;20547;-79
2021/09/07 11:56:01;;;;;;;14.90;7.28;;;21.50;99.90;;;;;;5032464;28;20064;-79
2021/09/07 11:58:30;;;;;;;15.35;6.78;;;21.50;99.90;;;;;;5032567;28;20030;-79
2021/09/07 12:01:10;;;;;;;10.55;7.18;;;21.50;99.90;;;;;;5032445;28;20045;-79
2021/09/07 12:03:46;;;;;;;15.23;6.82;;;21.40;99.90;;;;;;5032634;28;20490;-79
2021/09/07 12:06:38;;;;;;;10.60;7.13;;;21.40;99.90;;;;;;5031163;28;20079;-79
2021/09/07 12:09:25;;;;;;;16.45;7.22;;;21.40;99.90;;;;;;5014765;28;20028;-79
2021/09/07 12:12:03;;;;;;;19.08;8.45;;;21.50;99.90;;;;;;5031088;28;20496;-79
2021/09/07 12:14:44;;;;;;;16.30;7.47;;;21.60;99.90;;;;;;5030870;28;20030;-80
2021/09/07 12:17:15;;;;;;;18.30;8.63;;;21.30;99.90;;;;;;5032259;28;20017;-79
2021/09/07 12:19:43;;;;;;;13.10;7.15;;;21.30;99.90;;;;;;5032131;28;20084;-79
2021/09/07 12:22:23;;;;;;;13.77;7.25;;;21.60;99.90;;;;;;5032281;28;20017;-80
2021/09/07 12:25:11;;;;;;;10.80;7.03;;;21.70;99.90;;;;;;5032042;28;20551;-79
2021/09/07 12:27:44;;;;;;;12.90;6.97;;;22.20;99.90;;;;;;5032087;28;20026;-79
2021/09/07 12:30:28;;;;;;;18.15;8.73;;;22.40;99.90;;;;;;5032249;28;20018;-80
2021/09/07 12:33:09;;;;;;;15.88;8.13;;;22.40;99.90;;;;;;5030920;28;20060;-79
2021/09/07 12:35:55;;;;;;;14.20;7.32;;;22.30;99.90;;;;;;5031792;28;20025;-79
2021/09/07 12:38:23;;;;;;;15.70;7.43;;;22.40;99.90;;;;;;5032188;28;20052;-80